Aeroporto :
LOGIN :

Iscrizione | Disclaimer

   EN    FR    IT 

 










Sommario :    VFR   VFR Marginale   IFR   IFR Intensivo   IFR Molto Intensivo
Visibilità : 
Base nubi : 
>= 8 km
>= 3000ft
5 / 8 km
1000 / 3000 ft
1500m / 5 km
500 / 1000 ft
800 / 1500m
200 / 500 ft
< 800m
< 200 ft
Simboli :   Temporali  Nebbia  Neve Forte  Precipitazioni Forti  Vento > 20 kt
SIGMETs :   Varie  Temporali  Ghiacco  Turbolenza  Onda orograficha  Ceneri Vulcaniche






- Altitudine del aeroporto : 645 ft
- Codice IATA : DLE


LFGJ - Dole Tavaux

ULTIMO METAR :
  • 231130Z AUTO 20016KT CAVOK 14/02 Q1029 TEMPO 22015G25KT

METARs OBSOLETI :
  • 231100Z AUTO 21017KT CAVOK 13/03 Q1029 NOSIG
  • 231030Z AUTO 21019KT CAVOK 14/03 Q1029 NOSIG
  • 231000Z AUTO 19014KT CAVOK 13/03 Q1030 NOSIG
  • 230930Z AUTO 18010KT 9999 FEW044 BKN066 12/03 Q1030 NOSIG
  • 230900Z AUTO 18008KT 9999 OVC045 11/03 Q1030 NOSIG

TAF TAF LFGJ
Valido dal 23 a 12 ore il 23 a 21 ore UTC


231100Z 2312/2321 21015KT CAVOK
TEMPO 2312/2315 22015G25KT



MetMap, La meteo Aeronautica in un colpo d'occhio ! - Copyright ORBIFLY Dicembre 2007 - Disclaimer

ORBIFLY MET'MAP TEAM :

Programmazione e sviluppo : Alexandra Zaïnal
Concezione : Baudouin d'Aumeries
Aiuto per la programmazione : Marc-Olivier Méhu
Supporto tecnico e logistico : Manuel Goepfert
Aiuto per la traduzione : Arnaldo La Scala

Contatto : metmap@orbifly.com




FONTI E CREDITI :

   NOAA